sensor_id;sensor_type;location;lat;lon;timestamp;P1;durP1;ratioP1;P2;durP2;ratioP2
5591;SDS011;2818;49.790;9.958;2022-08-19T00:01:32;26.00;;;22.43;;
5591;SDS011;2818;49.790;9.958;2022-08-19T00:04:04;27.17;;;23.53;;
5591;SDS011;2818;49.790;9.958;2022-08-19T00:06:33;28.73;;;23.50;;
5591;SDS011;2818;49.790;9.958;2022-08-19T00:09:03;27.37;;;23.77;;
5591;SDS011;2818;49.790;9.958;2022-08-19T00:11:32;28.97;;;24.70;;
5591;SDS011;2818;49.790;9.958;2022-08-19T00:14:01;26.40;;;22.90;;
5591;SDS011;2818;49.790;9.958;2022-08-19T00:16:28;30.10;;;23.80;;
5591;SDS011;2818;49.790;9.958;2022-08-19T00:18:55;25.53;;;22.80;;
5591;SDS011;2818;49.790;9.958;2022-08-19T00:21:23;27.37;;;21.90;;
5591;SDS011;2818;49.790;9.958;2022-08-19T00:23:52;25.40;;;21.90;;
5591;SDS011;2818;49.790;9.958;2022-08-19T00:26:20;24.57;;;21.90;;
5591;SDS011;2818;49.790;9.958;2022-08-19T00:28:47;30.13;;;22.97;;
5591;SDS011;2818;49.790;9.958;2022-08-19T00:31:16;25.63;;;22.07;;
5591;SDS011;2818;49.790;9.958;2022-08-19T00:33:43;28.47;;;22.80;;
5591;SDS011;2818;49.790;9.958;2022-08-19T00:36:11;27.10;;;23.00;;
5591;SDS011;2818;49.790;9.958;2022-08-19T00:38:38;25.70;;;22.30;;
5591;SDS011;2818;49.790;9.958;2022-08-19T00:41:13;29.93;;;22.10;;
5591;SDS011;2818;49.790;9.958;2022-08-19T00:43:41;24.63;;;20.93;;
5591;SDS011;2818;49.790;9.958;2022-08-19T00:46:08;27.80;;;23.43;;
5591;SDS011;2818;49.790;9.958;2022-08-19T00:48:35;29.50;;;23.80;;
5591;SDS011;2818;49.790;9.958;2022-08-19T00:51:03;25.67;;;21.13;;
5591;SDS011;2818;49.790;9.958;2022-08-19T00:53:31;26.30;;;22.00;;
5591;SDS011;2818;49.790;9.958;2022-08-19T00:56:00;28.03;;;22.07;;
5591;SDS011;2818;49.790;9.958;2022-08-19T00:58:29;28.83;;;22.33;;
5591;SDS011;2818;49.790;9.958;2022-08-19T01:00:58;28.40;;;22.90;;
5591;SDS011;2818;49.790;9.958;2022-08-19T01:03:27;28.50;;;23.37;;
5591;SDS011;2818;49.790;9.958;2022-08-19T01:06:15;27.10;;;22.17;;
5591;SDS011;2818;49.790;9.958;2022-08-19T01:08:45;25.30;;;21.90;;
5591;SDS011;2818;49.790;9.958;2022-08-19T01:11:15;32.73;;;22.57;;
5591;SDS011;2818;49.790;9.958;2022-08-19T01:13:42;26.77;;;22.70;;
5591;SDS011;2818;49.790;9.958;2022-08-19T01:16:15;26.20;;;22.87;;
5591;SDS011;2818;49.790;9.958;2022-08-19T01:18:44;25.37;;;22.17;;
5591;SDS011;2818;49.790;9.958;2022-08-19T01:23:57;24.53;;;21.00;;
5591;SDS011;2818;49.790;9.958;2022-08-19T01:26:24;28.40;;;22.43;;
5591;SDS011;2818;49.790;9.958;2022-08-19T01:28:53;27.40;;;21.10;;
5591;SDS011;2818;49.790;9.958;2022-08-19T01:31:27;25.27;;;21.23;;
5591;SDS011;2818;49.790;9.958;2022-08-19T01:33:58;26.73;;;21.63;;
5591;SDS011;2818;49.790;9.958;2022-08-19T01:36:28;24.17;;;21.10;;
5591;SDS011;2818;49.790;9.958;2022-08-19T01:39:03;22.73;;;19.60;;
5591;SDS011;2818;49.790;9.958;2022-08-19T01:41:32;25.53;;;22.40;;
5591;SDS011;2818;49.790;9.958;2022-08-19T01:43:59;32.03;;;21.60;;
5591;SDS011;2818;49.790;9.958;2022-08-19T01:46:44;30.57;;;22.00;;
5591;SDS011;2818;49.790;9.958;2022-08-19T01:49:14;22.70;;;20.03;;
5591;SDS011;2818;49.790;9.958;2022-08-19T01:51:42;23.07;;;20.17;;
5591;SDS011;2818;49.790;9.958;2022-08-19T01:54:10;24.93;;;20.40;;
5591;SDS011;2818;49.790;9.958;2022-08-19T01:56:48;26.70;;;20.53;;
5591;SDS011;2818;49.790;9.958;2022-08-19T01:59:19;25.23;;;20.80;;
5591;SDS011;2818;49.790;9.958;2022-08-19T02:01:48;25.53;;;21.37;;
5591;SDS011;2818;49.790;9.958;2022-08-19T02:04:15;25.70;;;22.30;;
5591;SDS011;2818;49.790;9.958;2022-08-19T02:06:42;24.73;;;20.60;;
5591;SDS011;2818;49.790;9.958;2022-08-19T02:09:10;26.50;;;20.40;;
5591;SDS011;2818;49.790;9.958;2022-08-19T02:11:37;25.07;;;20.10;;
5591;SDS011;2818;49.790;9.958;2022-08-19T02:14:05;23.70;;;20.30;;
5591;SDS011;2818;49.790;9.958;2022-08-19T02:16:33;23.93;;;20.40;;
5591;SDS011;2818;49.790;9.958;2022-08-19T02:19:02;26.60;;;19.80;;
5591;SDS011;2818;49.790;9.958;2022-08-19T02:21:30;25.37;;;20.00;;
5591;SDS011;2818;49.790;9.958;2022-08-19T02:23:57;25.57;;;20.60;;
5591;SDS011;2818;49.790;9.958;2022-08-19T02:26:24;23.77;;;20.07;;
5591;SDS011;2818;49.790;9.958;2022-08-19T02:28:55;24.70;;;19.97;;
5591;SDS011;2818;49.790;9.958;2022-08-19T02:31:24;22.23;;;19.83;;
5591;SDS011;2818;49.790;9.958;2022-08-19T02:33:54;23.47;;;20.43;;
5591;SDS011;2818;49.790;9.958;2022-08-19T02:36:23;27.50;;;21.17;;
5591;SDS011;2818;49.790;9.958;2022-08-19T02:38:51;26.17;;;21.87;;
5591;SDS011;2818;49.790;9.958;2022-08-19T02:41:22;25.53;;;21.63;;
5591;SDS011;2818;49.790;9.958;2022-08-19T02:43:53;23.63;;;20.90;;
5591;SDS011;2818;49.790;9.958;2022-08-19T02:46:45;30.03;;;22.10;;
5591;SDS011;2818;49.790;9.958;2022-08-19T02:49:13;23.63;;;21.10;;
5591;SDS011;2818;49.790;9.958;2022-08-19T02:51:43;25.73;;;20.90;;
5591;SDS011;2818;49.790;9.958;2022-08-19T02:54:12;30.20;;;24.03;;
5591;SDS011;2818;49.790;9.958;2022-08-19T02:56:40;26.50;;;21.67;;
5591;SDS011;2818;49.790;9.958;2022-08-19T02:59:09;28.07;;;21.43;;
5591;SDS011;2818;49.790;9.958;2022-08-19T03:01:37;26.47;;;21.37;;
5591;SDS011;2818;49.790;9.958;2022-08-19T03:04:10;26.57;;;21.40;;
5591;SDS011;2818;49.790;9.958;2022-08-19T03:06:42;24.40;;;21.00;;
5591;SDS011;2818;49.790;9.958;2022-08-19T03:09:11;28.73;;;21.10;;
5591;SDS011;2818;49.790;9.958;2022-08-19T03:11:39;23.80;;;19.87;;
5591;SDS011;2818;49.790;9.958;2022-08-19T03:14:07;24.77;;;20.90;;
5591;SDS011;2818;49.790;9.958;2022-08-19T03:16:40;26.23;;;21.17;;
5591;SDS011;2818;49.790;9.958;2022-08-19T03:19:12;27.90;;;20.80;;
5591;SDS011;2818;49.790;9.958;2022-08-19T03:21:41;26.57;;;20.10;;
5591;SDS011;2818;49.790;9.958;2022-08-19T03:24:10;26.60;;;21.10;;
5591;SDS011;2818;49.790;9.958;2022-08-19T03:26:49;25.83;;;20.70;;
5591;SDS011;2818;49.790;9.958;2022-08-19T03:29:19;25.80;;;20.23;;
5591;SDS011;2818;49.790;9.958;2022-08-19T03:31:56;23.90;;;20.57;;
5591;SDS011;2818;49.790;9.958;2022-08-19T03:34:27;23.60;;;19.47;;
5591;SDS011;2818;49.790;9.958;2022-08-19T03:36:56;26.20;;;20.57;;
5591;SDS011;2818;49.790;9.958;2022-08-19T03:39:25;22.90;;;19.83;;
5591;SDS011;2818;49.790;9.958;2022-08-19T03:41:53;27.33;;;20.00;;
5591;SDS011;2818;49.790;9.958;2022-08-19T03:44:43;26.10;;;20.73;;
5591;SDS011;2818;49.790;9.958;2022-08-19T03:47:11;24.03;;;20.57;;
5591;SDS011;2818;49.790;9.958;2022-08-19T03:49:42;25.73;;;20.13;;
5591;SDS011;2818;49.790;9.958;2022-08-19T03:52:10;24.67;;;19.80;;
5591;SDS011;2818;49.790;9.958;2022-08-19T03:54:37;25.63;;;20.57;;
5591;SDS011;2818;49.790;9.958;2022-08-19T03:57:04;23.00;;;20.00;;
5591;SDS011;2818;49.790;9.958;2022-08-19T03:59:33;24.87;;;20.00;;
5591;SDS011;2818;49.790;9.958;2022-08-19T04:02:02;23.37;;;20.77;;
5591;SDS011;2818;49.790;9.958;2022-08-19T04:04:35;26.13;;;20.80;;
5591;SDS011;2818;49.790;9.958;2022-08-19T04:07:06;22.93;;;19.37;;
5591;SDS011;2818;49.790;9.958;2022-08-19T04:09:35;23.93;;;19.83;;
5591;SDS011;2818;49.790;9.958;2022-08-19T04:12:03;25.40;;;20.80;;
5591;SDS011;2818;49.790;9.958;2022-08-19T04:14:32;27.10;;;21.20;;
5591;SDS011;2818;49.790;9.958;2022-08-19T04:17:00;24.20;;;20.43;;
5591;SDS011;2818;49.790;9.958;2022-08-19T04:19:31;22.83;;;20.43;;
5591;SDS011;2818;49.790;9.958;2022-08-19T04:22:00;29.63;;;20.90;;
5591;SDS011;2818;49.790;9.958;2022-08-19T04:24:28;24.80;;;20.87;;
5591;SDS011;2818;49.790;9.958;2022-08-19T04:26:55;23.53;;;20.20;;
5591;SDS011;2818;49.790;9.958;2022-08-19T04:29:23;46.40;;;37.13;;
5591;SDS011;2818;49.790;9.958;2022-08-19T04:31:52;29.23;;;22.30;;
5591;SDS011;2818;49.790;9.958;2022-08-19T04:34:20;25.03;;;20.20;;
5591;SDS011;2818;49.790;9.958;2022-08-19T04:36:51;28.50;;;20.97;;
5591;SDS011;2818;49.790;9.958;2022-08-19T04:39:21;23.50;;;20.27;;
5591;SDS011;2818;49.790;9.958;2022-08-19T04:42:14;26.47;;;20.57;;
5591;SDS011;2818;49.790;9.958;2022-08-19T04:45:02;25.37;;;21.10;;
5591;SDS011;2818;49.790;9.958;2022-08-19T04:47:34;23.50;;;20.80;;
5591;SDS011;2818;49.790;9.958;2022-08-19T04:50:25;25.27;;;20.60;;
5591;SDS011;2818;49.790;9.958;2022-08-19T04:52:52;28.23;;;20.13;;
5591;SDS011;2818;49.790;9.958;2022-08-19T04:55:21;27.83;;;21.07;;
5591;SDS011;2818;49.790;9.958;2022-08-19T04:57:51;26.00;;;21.00;;
5591;SDS011;2818;49.790;9.958;2022-08-19T05:00:19;23.33;;;20.17;;
5591;SDS011;2818;49.790;9.958;2022-08-19T05:02:46;30.97;;;20.07;;
5591;SDS011;2818;49.790;9.958;2022-08-19T05:05:13;27.90;;;19.90;;
5591;SDS011;2818;49.790;9.958;2022-08-19T05:07:40;23.40;;;20.20;;
5591;SDS011;2818;49.790;9.958;2022-08-19T05:10:08;23.63;;;19.70;;
5591;SDS011;2818;49.790;9.958;2022-08-19T05:12:35;23.83;;;20.23;;
5591;SDS011;2818;49.790;9.958;2022-08-19T05:15:03;24.23;;;20.67;;
5591;SDS011;2818;49.790;9.958;2022-08-19T05:17:32;22.60;;;19.17;;
5591;SDS011;2818;49.790;9.958;2022-08-19T05:20:04;25.00;;;19.83;;
5591;SDS011;2818;49.790;9.958;2022-08-19T05:22:51;23.87;;;19.60;;
5591;SDS011;2818;49.790;9.958;2022-08-19T05:25:19;23.10;;;19.77;;
5591;SDS011;2818;49.790;9.958;2022-08-19T05:27:47;23.13;;;20.17;;
5591;SDS011;2818;49.790;9.958;2022-08-19T05:30:15;23.63;;;20.53;;
5591;SDS011;2818;49.790;9.958;2022-08-19T05:32:43;21.67;;;19.10;;
5591;SDS011;2818;49.790;9.958;2022-08-19T05:35:11;21.63;;;19.30;;
5591;SDS011;2818;49.790;9.958;2022-08-19T05:37:38;23.20;;;19.37;;
5591;SDS011;2818;49.790;9.958;2022-08-19T05:40:08;22.70;;;18.80;;
5591;SDS011;2818;49.790;9.958;2022-08-19T05:42:36;19.90;;;17.80;;
5591;SDS011;2818;49.790;9.958;2022-08-19T05:45:05;23.87;;;17.60;;
5591;SDS011;2818;49.790;9.958;2022-08-19T05:47:32;21.00;;;17.40;;
5591;SDS011;2818;49.790;9.958;2022-08-19T05:49:59;19.73;;;17.60;;
5591;SDS011;2818;49.790;9.958;2022-08-19T05:52:30;20.13;;;17.93;;
5591;SDS011;2818;49.790;9.958;2022-08-19T05:54:58;20.03;;;17.90;;
5591;SDS011;2818;49.790;9.958;2022-08-19T05:57:25;19.70;;;17.60;;
5591;SDS011;2818;49.790;9.958;2022-08-19T05:59:55;18.83;;;16.63;;
5591;SDS011;2818;49.790;9.958;2022-08-19T06:02:28;20.30;;;17.60;;
5591;SDS011;2818;49.790;9.958;2022-08-19T06:04:59;20.20;;;17.80;;
5591;SDS011;2818;49.790;9.958;2022-08-19T06:07:26;19.80;;;17.80;;
5591;SDS011;2818;49.790;9.958;2022-08-19T06:09:55;20.90;;;18.30;;
5591;SDS011;2818;49.790;9.958;2022-08-19T06:12:29;19.03;;;17.03;;
5591;SDS011;2818;49.790;9.958;2022-08-19T06:14:59;19.70;;;17.13;;
5591;SDS011;2818;49.790;9.958;2022-08-19T06:17:30;18.70;;;16.70;;
5591;SDS011;2818;49.790;9.958;2022-08-19T06:19:57;18.80;;;16.30;;
5591;SDS011;2818;49.790;9.958;2022-08-19T06:22:26;19.00;;;16.90;;
5591;SDS011;2818;49.790;9.958;2022-08-19T06:24:53;20.00;;;18.03;;
5591;SDS011;2818;49.790;9.958;2022-08-19T06:27:21;19.20;;;16.87;;
5591;SDS011;2818;49.790;9.958;2022-08-19T06:29:48;19.47;;;17.37;;
5591;SDS011;2818;49.790;9.958;2022-08-19T06:32:16;18.37;;;16.47;;
5591;SDS011;2818;49.790;9.958;2022-08-19T06:34:45;20.17;;;15.63;;
5591;SDS011;2818;49.790;9.958;2022-08-19T06:37:13;20.23;;;16.93;;
5591;SDS011;2818;49.790;9.958;2022-08-19T06:39:42;16.80;;;15.10;;
5591;SDS011;2818;49.790;9.958;2022-08-19T06:42:11;17.80;;;15.90;;
5591;SDS011;2818;49.790;9.958;2022-08-19T06:44:43;18.13;;;16.33;;
5591;SDS011;2818;49.790;9.958;2022-08-19T06:47:17;19.10;;;15.20;;
5591;SDS011;2818;49.790;9.958;2022-08-19T06:49:52;18.00;;;16.10;;
5591;SDS011;2818;49.790;9.958;2022-08-19T06:52:31;17.10;;;15.30;;
5591;SDS011;2818;49.790;9.958;2022-08-19T06:55:03;17.03;;;15.33;;
5591;SDS011;2818;49.790;9.958;2022-08-19T06:57:32;16.47;;;14.83;;
5591;SDS011;2818;49.790;9.958;2022-08-19T07:00:00;17.03;;;15.43;;
5591;SDS011;2818;49.790;9.958;2022-08-19T07:02:27;18.50;;;16.57;;
5591;SDS011;2818;49.790;9.958;2022-08-19T07:04:54;16.93;;;15.40;;
5591;SDS011;2818;49.790;9.958;2022-08-19T07:07:24;16.70;;;14.93;;
5591;SDS011;2818;49.790;9.958;2022-08-19T07:09:52;17.70;;;15.93;;
5591;SDS011;2818;49.790;9.958;2022-08-19T07:12:27;16.23;;;14.63;;
5591;SDS011;2818;49.790;9.958;2022-08-19T07:15:01;17.60;;;15.80;;
5591;SDS011;2818;49.790;9.958;2022-08-19T07:17:34;16.37;;;14.77;;
5591;SDS011;2818;49.790;9.958;2022-08-19T07:20:05;18.20;;;16.00;;
5591;SDS011;2818;49.790;9.958;2022-08-19T07:22:35;18.13;;;14.70;;
5591;SDS011;2818;49.790;9.958;2022-08-19T07:25:07;15.10;;;13.70;;
5591;SDS011;2818;49.790;9.958;2022-08-19T07:27:35;16.93;;;15.10;;
5591;SDS011;2818;49.790;9.958;2022-08-19T07:30:05;16.83;;;15.20;;
5591;SDS011;2818;49.790;9.958;2022-08-19T07:32:37;17.97;;;14.73;;
5591;SDS011;2818;49.790;9.958;2022-08-19T07:35:06;16.40;;;14.60;;
5591;SDS011;2818;49.790;9.958;2022-08-19T07:37:33;19.60;;;14.77;;
5591;SDS011;2818;49.790;9.958;2022-08-19T07:40:04;16.17;;;14.40;;
5591;SDS011;2818;49.790;9.958;2022-08-19T07:42:32;18.20;;;16.40;;
5591;SDS011;2818;49.790;9.958;2022-08-19T07:44:59;16.50;;;14.80;;
5591;SDS011;2818;49.790;9.958;2022-08-19T07:47:26;16.53;;;14.87;;
5591;SDS011;2818;49.790;9.958;2022-08-19T07:50:14;18.93;;;15.00;;
5591;SDS011;2818;49.790;9.958;2022-08-19T07:52:42;19.10;;;15.00;;
5591;SDS011;2818;49.790;9.958;2022-08-19T07:55:15;21.43;;;14.47;;
5591;SDS011;2818;49.790;9.958;2022-08-19T07:58:04;15.33;;;13.83;;
5591;SDS011;2818;49.790;9.958;2022-08-19T08:00:31;16.33;;;14.73;;
5591;SDS011;2818;49.790;9.958;2022-08-19T08:02:59;16.00;;;14.40;;
5591;SDS011;2818;49.790;9.958;2022-08-19T08:05:26;16.47;;;14.77;;
5591;SDS011;2818;49.790;9.958;2022-08-19T08:08:11;16.73;;;15.10;;
5591;SDS011;2818;49.790;9.958;2022-08-19T08:11:13;17.10;;;15.43;;
5591;SDS011;2818;49.790;9.958;2022-08-19T08:13:42;16.83;;;15.23;;
5591;SDS011;2818;49.790;9.958;2022-08-19T08:16:10;16.43;;;14.80;;
5591;SDS011;2818;49.790;9.958;2022-08-19T08:18:39;16.23;;;14.60;;
5591;SDS011;2818;49.790;9.958;2022-08-19T08:21:16;16.60;;;14.87;;
5591;SDS011;2818;49.790;9.958;2022-08-19T08:23:43;15.47;;;13.90;;
5591;SDS011;2818;49.790;9.958;2022-08-19T08:26:10;15.40;;;13.83;;
5591;SDS011;2818;49.790;9.958;2022-08-19T08:28:38;14.77;;;13.40;;
5591;SDS011;2818;49.790;9.958;2022-08-19T08:31:06;18.90;;;14.30;;
5591;SDS011;2818;49.790;9.958;2022-08-19T08:33:35;16.90;;;15.30;;
5591;SDS011;2818;49.790;9.958;2022-08-19T08:36:04;16.90;;;13.93;;
5591;SDS011;2818;49.790;9.958;2022-08-19T08:38:32;15.30;;;13.80;;
5591;SDS011;2818;49.790;9.958;2022-08-19T08:41:17;15.37;;;13.93;;
5591;SDS011;2818;49.790;9.958;2022-08-19T08:44:04;14.40;;;13.10;;
5591;SDS011;2818;49.790;9.958;2022-08-19T08:54:59;14.33;;;13.03;;
5591;SDS011;2818;49.790;9.958;2022-08-19T08:57:39;14.43;;;12.90;;
5591;SDS011;2818;49.790;9.958;2022-08-19T09:00:14;14.57;;;13.10;;
5591;SDS011;2818;49.790;9.958;2022-08-19T09:02:44;17.07;;;13.13;;
5591;SDS011;2818;49.790;9.958;2022-08-19T09:05:17;14.47;;;13.20;;
5591;SDS011;2818;49.790;9.958;2022-08-19T09:07:59;16.07;;;12.90;;
5591;SDS011;2818;49.790;9.958;2022-08-19T09:10:39;14.57;;;12.20;;
5591;SDS011;2818;49.790;9.958;2022-08-19T09:15:57;13.40;;;12.20;;
5591;SDS011;2818;49.790;9.958;2022-08-19T09:18:46;13.63;;;12.23;;
5591;SDS011;2818;49.790;9.958;2022-08-19T09:21:19;14.83;;;13.30;;
5591;SDS011;2818;49.790;9.958;2022-08-19T09:23:58;13.67;;;12.57;;
5591;SDS011;2818;49.790;9.958;2022-08-19T09:26:28;13.57;;;12.27;;
5591;SDS011;2818;49.790;9.958;2022-08-19T09:29:13;11.70;;;10.70;;
5591;SDS011;2818;49.790;9.958;2022-08-19T09:31:42;14.10;;;12.60;;
5591;SDS011;2818;49.790;9.958;2022-08-19T09:34:09;13.13;;;11.83;;
5591;SDS011;2818;49.790;9.958;2022-08-19T09:36:47;14.57;;;13.30;;
5591;SDS011;2818;49.790;9.958;2022-08-19T09:39:21;15.47;;;12.30;;
5591;SDS011;2818;49.790;9.958;2022-08-19T09:41:49;13.33;;;12.07;;
5591;SDS011;2818;49.790;9.958;2022-08-19T09:44:16;13.80;;;12.50;;
5591;SDS011;2818;49.790;9.958;2022-08-19T09:46:44;13.97;;;12.67;;
5591;SDS011;2818;49.790;9.958;2022-08-19T09:49:14;13.47;;;12.37;;
5591;SDS011;2818;49.790;9.958;2022-08-19T09:51:44;13.23;;;12.10;;
5591;SDS011;2818;49.790;9.958;2022-08-19T09:54:16;12.50;;;11.50;;
5591;SDS011;2818;49.790;9.958;2022-08-19T09:56:49;12.70;;;11.53;;
5591;SDS011;2818;49.790;9.958;2022-08-19T09:59:16;14.53;;;12.90;;
5591;SDS011;2818;49.790;9.958;2022-08-19T10:01:44;13.23;;;11.93;;
5591;SDS011;2818;49.790;9.958;2022-08-19T10:04:11;12.70;;;11.20;;
5591;SDS011;2818;49.790;9.958;2022-08-19T10:06:45;10.77;;;9.87;;
5591;SDS011;2818;49.790;9.958;2022-08-19T10:09:19;10.97;;;9.60;;
5591;SDS011;2818;49.790;9.958;2022-08-19T10:12:00;10.30;;;9.30;;
5591;SDS011;2818;49.790;9.958;2022-08-19T10:14:28;10.37;;;9.43;;
5591;SDS011;2818;49.790;9.958;2022-08-19T10:16:56;10.57;;;9.60;;
5591;SDS011;2818;49.790;9.958;2022-08-19T10:19:24;10.67;;;9.53;;
5591;SDS011;2818;49.790;9.958;2022-08-19T10:21:52;13.17;;;9.10;;
5591;SDS011;2818;49.790;9.958;2022-08-19T10:24:25;8.47;;;7.77;;
5591;SDS011;2818;49.790;9.958;2022-08-19T10:26:54;9.63;;;7.80;;
5591;SDS011;2818;49.790;9.958;2022-08-19T10:29:25;8.47;;;7.87;;
5591;SDS011;2818;49.790;9.958;2022-08-19T10:31:59;8.50;;;7.80;;
5591;SDS011;2818;49.790;9.958;2022-08-19T10:34:38;8.23;;;7.67;;
5591;SDS011;2818;49.790;9.958;2022-08-19T10:37:15;48.77;;;41.83;;
5591;SDS011;2818;49.790;9.958;2022-08-19T10:39:57;8.47;;;7.80;;
5591;SDS011;2818;49.790;9.958;2022-08-19T10:42:25;11.80;;;10.63;;
5591;SDS011;2818;49.790;9.958;2022-08-19T10:44:52;7.87;;;7.27;;
5591;SDS011;2818;49.790;9.958;2022-08-19T10:47:19;7.87;;;7.23;;
5591;SDS011;2818;49.790;9.958;2022-08-19T10:49:54;12.07;;;6.90;;
5591;SDS011;2818;49.790;9.958;2022-08-19T10:52:41;7.30;;;6.70;;
5591;SDS011;2818;49.790;9.958;2022-08-19T10:55:17;7.30;;;6.90;;
5591;SDS011;2818;49.790;9.958;2022-08-19T10:58:12;6.20;;;5.80;;
5591;SDS011;2818;49.790;9.958;2022-08-19T11:00:52;8.50;;;6.10;;
5591;SDS011;2818;49.790;9.958;2022-08-19T11:03:24;6.47;;;5.87;;
5591;SDS011;2818;49.790;9.958;2022-08-19T11:06:00;5.90;;;5.30;;
5591;SDS011;2818;49.790;9.958;2022-08-19T11:08:30;5.07;;;4.77;;
5591;SDS011;2818;49.790;9.958;2022-08-19T11:10:58;4.57;;;4.37;;
5591;SDS011;2818;49.790;9.958;2022-08-19T11:13:28;5.03;;;4.60;;
5591;SDS011;2818;49.790;9.958;2022-08-19T11:16:03;5.00;;;4.60;;
5591;SDS011;2818;49.790;9.958;2022-08-19T11:18:44;4.67;;;4.47;;
5591;SDS011;2818;49.790;9.958;2022-08-19T11:21:15;4.73;;;4.53;;
5591;SDS011;2818;49.790;9.958;2022-08-19T11:23:45;4.80;;;4.50;;
5591;SDS011;2818;49.790;9.958;2022-08-19T11:26:14;4.33;;;4.23;;
5591;SDS011;2818;49.790;9.958;2022-08-19T11:28:43;4.87;;;4.50;;
5591;SDS011;2818;49.790;9.958;2022-08-19T11:31:15;4.47;;;4.10;;
5591;SDS011;2818;49.790;9.958;2022-08-19T11:33:44;5.17;;;4.70;;
5591;SDS011;2818;49.790;9.958;2022-08-19T11:36:13;4.60;;;4.47;;
5591;SDS011;2818;49.790;9.958;2022-08-19T11:38:41;5.10;;;4.70;;
5591;SDS011;2818;49.790;9.958;2022-08-19T11:41:09;4.53;;;4.30;;
5591;SDS011;2818;49.790;9.958;2022-08-19T11:43:36;4.47;;;4.20;;
5591;SDS011;2818;49.790;9.958;2022-08-19T11:46:09;4.97;;;4.67;;
5591;SDS011;2818;49.790;9.958;2022-08-19T11:48:38;5.20;;;4.87;;
5591;SDS011;2818;49.790;9.958;2022-08-19T11:51:07;4.93;;;4.50;;
5591;SDS011;2818;49.790;9.958;2022-08-19T11:53:35;4.57;;;4.10;;
5591;SDS011;2818;49.790;9.958;2022-08-19T11:56:03;4.50;;;4.30;;
5591;SDS011;2818;49.790;9.958;2022-08-19T11:58:31;4.73;;;4.53;;
5591;SDS011;2818;49.790;9.958;2022-08-19T12:00:58;4.33;;;3.90;;
5591;SDS011;2818;49.790;9.958;2022-08-19T12:03:25;4.40;;;4.10;;
5591;SDS011;2818;49.790;9.958;2022-08-19T12:05:52;4.03;;;3.73;;
5591;SDS011;2818;49.790;9.958;2022-08-19T12:08:19;3.77;;;3.67;;
5591;SDS011;2818;49.790;9.958;2022-08-19T12:10:46;3.47;;;3.27;;
5591;SDS011;2818;49.790;9.958;2022-08-19T12:13:14;4.97;;;3.70;;
5591;SDS011;2818;49.790;9.958;2022-08-19T12:15:45;5.70;;;3.70;;
5591;SDS011;2818;49.790;9.958;2022-08-19T12:18:13;4.10;;;3.80;;
5591;SDS011;2818;49.790;9.958;2022-08-19T12:20:41;3.83;;;3.63;;
5591;SDS011;2818;49.790;9.958;2022-08-19T12:23:09;3.90;;;3.67;;
5591;SDS011;2818;49.790;9.958;2022-08-19T12:25:37;3.80;;;3.60;;
5591;SDS011;2818;49.790;9.958;2022-08-19T12:28:17;4.20;;;3.80;;
5591;SDS011;2818;49.790;9.958;2022-08-19T12:30:48;4.50;;;4.20;;
5591;SDS011;2818;49.790;9.958;2022-08-19T12:33:18;3.80;;;3.70;;
5591;SDS011;2818;49.790;9.958;2022-08-19T12:35:45;4.10;;;3.90;;
5591;SDS011;2818;49.790;9.958;2022-08-19T12:38:13;4.23;;;3.70;;
5591;SDS011;2818;49.790;9.958;2022-08-19T12:40:41;4.00;;;3.80;;
5591;SDS011;2818;49.790;9.958;2022-08-19T12:43:11;3.97;;;3.77;;
5591;SDS011;2818;49.790;9.958;2022-08-19T12:45:38;3.90;;;3.70;;
5591;SDS011;2818;49.790;9.958;2022-08-19T12:48:08;3.80;;;3.70;;
5591;SDS011;2818;49.790;9.958;2022-08-19T12:51:00;3.53;;;3.40;;
5591;SDS011;2818;49.790;9.958;2022-08-19T12:53:35;4.07;;;3.77;;
5591;SDS011;2818;49.790;9.958;2022-08-19T12:56:04;3.97;;;3.80;;
5591;SDS011;2818;49.790;9.958;2022-08-19T12:58:37;3.80;;;3.60;;
5591;SDS011;2818;49.790;9.958;2022-08-19T13:01:09;4.33;;;4.03;;
5591;SDS011;2818;49.790;9.958;2022-08-19T13:03:47;3.53;;;3.30;;
5591;SDS011;2818;49.790;9.958;2022-08-19T13:06:16;3.27;;;3.07;;
5591;SDS011;2818;49.790;9.958;2022-08-19T13:08:45;3.30;;;3.20;;
5591;SDS011;2818;49.790;9.958;2022-08-19T13:11:16;3.70;;;3.50;;
5591;SDS011;2818;49.790;9.958;2022-08-19T13:13:47;3.60;;;3.47;;
5591;SDS011;2818;49.790;9.958;2022-08-19T13:16:16;3.00;;;2.90;;
5591;SDS011;2818;49.790;9.958;2022-08-19T13:18:44;2.90;;;2.80;;
5591;SDS011;2818;49.790;9.958;2022-08-19T13:21:18;3.70;;;3.40;;
5591;SDS011;2818;49.790;9.958;2022-08-19T13:23:48;3.03;;;2.83;;
5591;SDS011;2818;49.790;9.958;2022-08-19T13:26:16;3.10;;;3.00;;
5591;SDS011;2818;49.790;9.958;2022-08-19T13:28:44;3.07;;;2.83;;
5591;SDS011;2818;49.790;9.958;2022-08-19T13:31:31;2.97;;;2.87;;
5591;SDS011;2818;49.790;9.958;2022-08-19T13:34:32;2.80;;;2.70;;
5591;SDS011;2818;49.790;9.958;2022-08-19T13:37:01;3.13;;;3.03;;
5591;SDS011;2818;49.790;9.958;2022-08-19T13:39:30;2.83;;;2.73;;
5591;SDS011;2818;49.790;9.958;2022-08-19T13:41:59;2.87;;;2.83;;
5591;SDS011;2818;49.790;9.958;2022-08-19T13:44:27;3.10;;;2.80;;
5591;SDS011;2818;49.790;9.958;2022-08-19T13:47:01;3.40;;;3.10;;
5591;SDS011;2818;49.790;9.958;2022-08-19T13:49:34;3.00;;;2.80;;
5591;SDS011;2818;49.790;9.958;2022-08-19T13:52:03;3.07;;;2.80;;
5591;SDS011;2818;49.790;9.958;2022-08-19T13:54:31;2.37;;;2.27;;
5591;SDS011;2818;49.790;9.958;2022-08-19T13:56:58;2.77;;;2.60;;
5591;SDS011;2818;49.790;9.958;2022-08-19T13:59:25;2.60;;;2.60;;
5591;SDS011;2818;49.790;9.958;2022-08-19T14:01:52;3.13;;;2.93;;
5591;SDS011;2818;49.790;9.958;2022-08-19T14:04:23;2.37;;;2.37;;
5591;SDS011;2818;49.790;9.958;2022-08-19T14:06:50;2.87;;;2.67;;
5591;SDS011;2818;49.790;9.958;2022-08-19T14:09:17;3.23;;;2.40;;
5591;SDS011;2818;49.790;9.958;2022-08-19T14:11:44;2.27;;;2.27;;
5591;SDS011;2818;49.790;9.958;2022-08-19T14:14:12;3.00;;;2.30;;
5591;SDS011;2818;49.790;9.958;2022-08-19T14:16:41;2.30;;;2.20;;
5591;SDS011;2818;49.790;9.958;2022-08-19T14:19:09;2.70;;;2.50;;
5591;SDS011;2818;49.790;9.958;2022-08-19T14:21:36;4.00;;;2.57;;
5591;SDS011;2818;49.790;9.958;2022-08-19T14:24:07;3.60;;;2.40;;
5591;SDS011;2818;49.790;9.958;2022-08-19T14:26:34;2.30;;;2.20;;
5591;SDS011;2818;49.790;9.958;2022-08-19T14:29:01;12.23;;;11.03;;
5591;SDS011;2818;49.790;9.958;2022-08-19T14:31:28;12.97;;;11.83;;
5591;SDS011;2818;49.790;9.958;2022-08-19T14:33:56;2.90;;;2.70;;
5591;SDS011;2818;49.790;9.958;2022-08-19T14:36:23;2.70;;;2.50;;
5591;SDS011;2818;49.790;9.958;2022-08-19T14:38:50;3.17;;;2.97;;
5591;SDS011;2818;49.790;9.958;2022-08-19T14:41:18;3.00;;;2.90;;
5591;SDS011;2818;49.790;9.958;2022-08-19T14:43:48;2.57;;;2.40;;
5591;SDS011;2818;49.790;9.958;2022-08-19T14:46:18;2.83;;;2.50;;
5591;SDS011;2818;49.790;9.958;2022-08-19T14:48:48;3.13;;;2.93;;
5591;SDS011;2818;49.790;9.958;2022-08-19T14:51:18;2.20;;;2.10;;
5591;SDS011;2818;49.790;9.958;2022-08-19T14:53:46;2.40;;;2.30;;
5591;SDS011;2818;49.790;9.958;2022-08-19T14:56:16;2.63;;;2.53;;
5591;SDS011;2818;49.790;9.958;2022-08-19T14:58:45;2.60;;;2.50;;
5591;SDS011;2818;49.790;9.958;2022-08-19T15:01:13;2.47;;;2.37;;
5591;SDS011;2818;49.790;9.958;2022-08-19T15:03:40;2.10;;;2.00;;
5591;SDS011;2818;49.790;9.958;2022-08-19T15:06:07;2.50;;;2.40;;
5591;SDS011;2818;49.790;9.958;2022-08-19T15:08:39;2.70;;;2.50;;
5591;SDS011;2818;49.790;9.958;2022-08-19T15:11:08;2.60;;;2.50;;
5591;SDS011;2818;49.790;9.958;2022-08-19T15:13:41;2.83;;;2.70;;
5591;SDS011;2818;49.790;9.958;2022-08-19T15:16:10;2.57;;;2.40;;
5591;SDS011;2818;49.790;9.958;2022-08-19T15:18:43;5.60;;;2.50;;
5591;SDS011;2818;49.790;9.958;2022-08-19T15:21:12;2.67;;;2.57;;
5591;SDS011;2818;49.790;9.958;2022-08-19T15:23:41;2.63;;;2.50;;
5591;SDS011;2818;49.790;9.958;2022-08-19T15:26:10;2.90;;;2.60;;
5591;SDS011;2818;49.790;9.958;2022-08-19T15:28:41;5.10;;;2.93;;
5591;SDS011;2818;49.790;9.958;2022-08-19T15:31:09;7.63;;;6.93;;
5591;SDS011;2818;49.790;9.958;2022-08-19T15:33:54;2.93;;;2.73;;